Time;durP1;ratioP1;P1;durP2;ratioP2;P2;SDS_P1;SDS_P2;PMS_P1;PMS_P2;Temp;Humidity;BMP_temperature;BMP_pressure;BME280_temperature;BME280_humidity;BME280_pressure;Samples;Min_cycle;Max_cycle;Signal;HPM_P1;HPM_P2
2023/05/25 00:01:17;;;;;;;8.27;4.63;;;11.20;99.90;;;;;;4944274;28;20707;-64
2023/05/25 00:03:45;;;;;;;5.60;4.33;;;11.20;99.90;;;;;;4959835;28;20235;-63
2023/05/25 00:06:14;;;;;;;9.13;4.83;;;11.10;99.90;;;;;;4971963;28;20566;-63
2023/05/25 00:08:42;;;;;;;11.47;4.40;;;11.10;99.90;;;;;;4957618;28;20220;-60
2023/05/25 00:11:11;;;;;;;10.30;4.97;;;11.10;99.90;;;;;;4956691;28;20216;-60
2023/05/25 00:13:39;;;;;;;7.90;5.17;;;11.10;99.90;;;;;;4956716;28;20231;-63
2023/05/25 00:16:08;;;;;;;6.97;5.07;;;11.00;99.90;;;;;;4964974;28;20238;-63
2023/05/25 00:18:37;;;;;;;12.93;4.97;;;11.00;99.90;;;;;;4970379;28;20196;-63
2023/05/25 00:21:06;;;;;;;8.50;4.87;;;10.90;99.90;;;;;;4957259;28;20207;-62
2023/05/25 00:23:34;;;;;;;9.70;5.03;;;10.90;99.90;;;;;;4956611;28;20224;-63
2023/05/25 00:26:03;;;;;;;10.60;5.33;;;10.90;99.90;;;;;;4968954;28;20226;-63
2023/05/25 00:28:32;;;;;;;9.60;5.13;;;10.80;99.90;;;;;;4957265;28;20230;-63
2023/05/25 00:31:00;;;;;;;9.67;5.07;;;10.80;99.90;;;;;;4956820;28;20250;-63
2023/05/25 00:33:28;;;;;;;10.40;5.33;;;10.80;99.90;;;;;;4957615;28;20539;-63
2023/05/25 00:35:59;;;;;;;15.03;5.33;;;10.80;99.90;;;;;;4963890;28;20232;-62
2023/05/25 00:38:27;;;;;;;8.40;5.03;;;10.70;99.90;;;;;;4959174;28;20233;-62
2023/05/25 00:40:55;;;;;;;10.87;5.80;;;10.70;99.90;;;;;;4956755;28;20255;-63
2023/05/25 00:43:24;;;;;;;8.87;5.20;;;10.70;99.90;;;;;;4956439;28;20224;-62
2023/05/25 00:45:53;;;;;;;7.90;5.10;;;10.70;99.90;;;;;;4956811;28;20232;-62
2023/05/25 00:48:22;;;;;;;10.40;5.63;;;10.60;99.90;;;;;;4975753;28;20207;-63
2023/05/25 00:50:56;;;;;;;10.93;5.53;;;10.60;99.90;;;;;;4975910;28;20609;-63
2023/05/25 00:53:26;;;;;;;11.87;6.13;;;10.60;99.90;;;;;;4948594;28;20223;-62
2023/05/25 00:56:02;;;;;;;10.97;5.90;;;10.60;99.90;;;;;;4952348;28;20236;-63
2023/05/25 00:58:34;;;;;;;8.07;5.10;;;10.50;99.90;;;;;;4949815;28;20244;-63
2023/05/25 01:01:05;;;;;;;10.33;5.67;;;10.50;99.90;;;;;;4956858;28;20231;-62
2023/05/25 01:03:37;;;;;;;10.23;5.77;;;10.60;99.90;;;;;;4957311;28;20196;-62
2023/05/25 01:06:09;;;;;;;12.93;5.67;;;10.60;99.90;;;;;;4957604;28;20197;-63
2023/05/25 01:08:42;;;;;;;10.63;5.63;;;10.50;99.90;;;;;;4954987;28;20228;-62
2023/05/25 01:11:12;;;;;;;12.17;6.07;;;10.50;99.90;;;;;;4948474;28;20235;-63
2023/05/25 01:13:42;;;;;;;13.63;5.90;;;10.60;99.90;;;;;;4957503;28;20764;-63
2023/05/25 01:16:10;;;;;;;8.60;5.80;;;10.60;99.90;;;;;;4961645;28;20235;-63
2023/05/25 01:18:40;;;;;;;11.53;6.20;;;10.60;99.90;;;;;;4956327;28;20215;-62
2023/05/25 01:21:16;;;;;;;14.63;6.13;;;10.60;99.90;;;;;;4956549;28;20587;-60
2023/05/25 01:23:51;;;;;;;12.00;6.07;;;10.60;99.90;;;;;;4955392;28;20223;-61
2023/05/25 01:26:23;;;;;;;9.47;5.90;;;10.50;99.90;;;;;;4955463;28;20234;-62
2023/05/25 01:28:52;;;;;;;10.33;5.60;;;10.50;99.90;;;;;;4955479;28;20223;-60
2023/05/25 01:31:22;;;;;;;13.77;6.70;;;10.50;99.90;;;;;;4954684;28;20227;-60
2023/05/25 01:33:52;;;;;;;15.50;6.37;;;10.50;99.90;;;;;;4955743;28;20224;-61
2023/05/25 01:36:22;;;;;;;12.57;6.20;;;10.50;99.90;;;;;;4955021;28;20223;-63
2023/05/25 01:38:50;;;;;;;17.60;6.83;;;10.50;99.90;;;;;;4931395;29;20675;-63
2023/05/25 01:41:18;;;;;;;18.30;6.73;;;10.50;99.90;;;;;;4951134;28;20553;-62
2023/05/25 01:43:47;;;;;;;11.97;6.27;;;10.50;99.90;;;;;;4955290;28;20243;-62
2023/05/25 01:46:24;;;;;;;11.63;6.33;;;10.50;99.90;;;;;;4953804;28;20318;-63
2023/05/25 01:49:00;;;;;;;9.33;5.90;;;10.40;99.90;;;;;;4955599;28;20220;-63
2023/05/25 01:51:36;;;;;;;14.73;6.40;;;10.40;99.90;;;;;;4939227;28;20199;-62
2023/05/25 01:54:11;;;;;;;16.37;6.57;;;10.40;99.90;;;;;;4955454;28;20211;-62
2023/05/25 01:56:41;;;;;;;14.20;6.40;;;10.40;99.90;;;;;;4945050;28;20211;-63
2023/05/25 01:59:11;;;;;;;11.93;6.40;;;10.40;99.90;;;;;;4965809;28;20274;-63
2023/05/25 02:01:40;;;;;;;14.03;6.47;;;10.40;99.90;;;;;;4955083;28;20226;-63
2023/05/25 02:04:09;;;;;;;11.67;6.30;;;10.30;99.90;;;;;;4955302;28;20622;-63
2023/05/25 02:06:39;;;;;;;13.00;6.43;;;10.30;99.90;;;;;;4957050;28;20287;-63
2023/05/25 02:09:07;;;;;;;14.40;6.80;;;10.30;99.90;;;;;;4962820;28;20654;-62
2023/05/25 02:11:36;;;;;;;15.50;6.40;;;10.30;99.90;;;;;;4954839;28;20216;-63
2023/05/25 02:14:04;;;;;;;16.33;6.03;;;10.30;99.90;;;;;;4954930;28;20224;-62
2023/05/25 02:16:32;;;;;;;19.77;6.70;;;10.30;99.90;;;;;;4941443;28;20766;-63
2023/05/25 02:19:01;;;;;;;12.30;6.50;;;10.30;99.90;;;;;;4950379;28;20234;-63
2023/05/25 02:21:30;;;;;;;15.90;6.93;;;10.30;99.90;;;;;;4965104;28;20208;-60
2023/05/25 02:23:59;;;;;;;12.83;6.50;;;10.30;99.90;;;;;;4963980;28;20519;-63
2023/05/25 02:26:28;;;;;;;12.27;6.77;;;10.30;99.90;;;;;;4954471;28;20567;-63
2023/05/25 02:28:56;;;;;;;13.27;6.43;;;10.30;99.90;;;;;;4966981;28;20286;-62
2023/05/25 02:31:24;;;;;;;22.97;7.00;;;10.20;99.90;;;;;;4969286;28;20612;-62
2023/05/25 02:33:53;;;;;;;12.87;7.10;;;10.20;99.90;;;;;;4954571;28;20259;-63
2023/05/25 02:36:21;;;;;;;13.80;6.87;;;10.20;99.90;;;;;;4954051;28;20300;-63
2023/05/25 02:38:50;;;;;;;17.20;7.40;;;10.20;99.90;;;;;;4954814;28;20227;-63
2023/05/25 02:41:23;;;;;;;16.27;7.47;;;10.20;99.90;;;;;;4953944;28;20220;-62
2023/05/25 02:43:51;;;;;;;14.67;7.23;;;10.10;99.90;;;;;;4954763;28;20234;-63
2023/05/25 02:46:19;;;;;;;9.70;6.43;;;10.10;99.90;;;;;;4954493;28;20232;-62
2023/05/25 02:48:48;;;;;;;12.80;6.60;;;10.10;99.90;;;;;;4953521;28;20227;-62
2023/05/25 02:51:16;;;;;;;15.03;7.63;;;10.00;99.90;;;;;;4955335;28;20277;-62
2023/05/25 02:53:44;;;;;;;14.10;7.07;;;10.00;99.90;;;;;;4954618;28;20223;-62
2023/05/25 02:56:13;;;;;;;14.50;6.80;;;9.90;99.90;;;;;;4952019;28;20578;-63
2023/05/25 02:58:42;;;;;;;13.13;7.30;;;9.90;99.90;;;;;;4954345;28;20283;-63
2023/05/25 03:01:17;;;;;;;14.17;6.83;;;9.90;99.90;;;;;;4954541;28;20224;-62
2023/05/25 03:03:46;;;;;;;12.80;6.63;;;9.90;99.90;;;;;;4954448;28;20224;-62
2023/05/25 03:06:14;;;;;;;17.73;6.97;;;9.90;99.90;;;;;;4954897;28;20238;-62
2023/05/25 03:08:43;;;;;;;20.23;7.53;;;9.90;99.90;;;;;;4954146;28;20219;-63
2023/05/25 03:11:11;;;;;;;14.13;7.53;;;9.90;99.90;;;;;;4945527;28;20224;-62
2023/05/25 03:13:39;;;;;;;16.10;7.23;;;9.90;99.90;;;;;;4954266;28;20230;-63
2023/05/25 03:16:09;;;;;;;19.97;7.50;;;9.80;99.90;;;;;;4954155;28;20228;-62
2023/05/25 03:18:38;;;;;;;13.70;7.43;;;9.80;99.90;;;;;;4957062;28;20563;-63
2023/05/25 03:21:06;;;;;;;20.33;7.60;;;9.80;99.90;;;;;;4954629;28;20590;-62
2023/05/25 03:23:35;;;;;;;18.23;7.90;;;9.80;99.90;;;;;;4953861;28;20227;-63
2023/05/25 03:26:03;;;;;;;13.57;7.30;;;9.70;99.90;;;;;;4953934;28;20611;-63
2023/05/25 03:28:31;;;;;;;17.57;7.90;;;9.70;99.90;;;;;;4954167;28;20705;-63
2023/05/25 03:31:00;;;;;;;18.47;8.30;;;9.60;99.90;;;;;;4954496;28;20227;-63
2023/05/25 03:33:30;;;;;;;19.07;7.80;;;9.60;99.90;;;;;;4954237;28;20347;-63
2023/05/25 03:35:58;;;;;;;18.10;8.33;;;9.60;99.90;;;;;;4954792;28;20227;-63
2023/05/25 03:38:28;;;;;;;17.63;8.57;;;9.60;99.90;;;;;;4957635;28;20236;-62
2023/05/25 03:40:56;;;;;;;16.03;8.20;;;9.60;99.90;;;;;;4954625;28;20220;-63
2023/05/25 03:43:24;;;;;;;18.17;8.20;;;9.60;99.90;;;;;;4954253;28;20584;-62
2023/05/25 03:45:52;;;;;;;19.50;7.87;;;9.50;99.90;;;;;;4954261;28;20224;-62
2023/05/25 03:48:21;;;;;;;18.83;8.07;;;9.50;99.90;;;;;;4935456;29;20611;-63
2023/05/25 03:50:50;;;;;;;18.17;8.67;;;9.50;99.90;;;;;;4947980;29;20212;-63
2023/05/25 03:53:18;;;;;;;18.07;8.30;;;9.50;99.90;;;;;;4954022;28;20224;-63
2023/05/25 03:55:50;;;;;;;18.27;8.50;;;9.50;99.90;;;;;;4967351;28;20234;-63
2023/05/25 03:58:19;;;;;;;16.43;8.50;;;9.50;99.90;;;;;;4963007;28;20231;-64
2023/05/25 04:00:49;;;;;;;16.53;8.60;;;9.40;99.90;;;;;;4957307;28;20231;-63
2023/05/25 04:03:19;;;;;;;17.53;8.50;;;9.40;99.90;;;;;;4957475;28;20266;-63
2023/05/25 04:05:47;;;;;;;15.63;8.33;;;9.40;99.90;;;;;;4952831;28;20691;-63
2023/05/25 04:08:17;;;;;;;21.10;9.07;;;9.40;99.90;;;;;;4952279;28;20231;-62
2023/05/25 04:10:46;;;;;;;17.27;9.33;;;9.40;99.90;;;;;;4951933;28;20223;-63
2023/05/25 04:13:14;;;;;;;21.90;9.30;;;9.40;99.90;;;;;;4956498;28;20695;-63
2023/05/25 04:15:43;;;;;;;18.33;8.37;;;9.40;99.90;;;;;;4957248;28;20192;-62
2023/05/25 04:18:12;;;;;;;16.90;9.33;;;9.40;99.90;;;;;;4957278;28;20192;-64
2023/05/25 04:20:40;;;;;;;19.80;8.97;;;9.40;99.90;;;;;;4956788;28;20270;-63
2023/05/25 04:23:09;;;;;;;20.20;9.03;;;9.40;99.90;;;;;;4957155;28;20220;-62
2023/05/25 04:25:40;;;;;;;22.77;10.27;;;9.50;99.90;;;;;;4956427;28;20324;-63
2023/05/25 04:28:11;;;;;;;20.17;9.20;;;9.50;99.90;;;;;;4956833;28;20769;-63
2023/05/25 04:30:40;;;;;;;19.20;10.30;;;9.50;99.90;;;;;;4956670;28;20184;-63
2023/05/25 04:33:11;;;;;;;16.63;9.00;;;9.60;99.90;;;;;;4957114;28;20204;-62
2023/05/25 04:35:40;;;;;;;25.47;10.37;;;9.60;99.90;;;;;;4956473;28;20231;-62
2023/05/25 04:38:11;;;;;;;24.83;8.83;;;9.60;99.90;;;;;;4956448;28;20271;-63
2023/05/25 04:40:40;;;;;;;16.03;9.03;;;9.70;99.90;;;;;;4958561;28;20220;-63
2023/05/25 04:43:10;;;;;;;22.57;9.73;;;9.70;99.90;;;;;;4957115;28;20228;-62
2023/05/25 04:45:38;;;;;;;21.67;9.33;;;9.80;99.90;;;;;;4956883;28;20238;-62
2023/05/25 04:48:07;;;;;;;23.43;9.70;;;9.80;99.90;;;;;;4957512;28;20196;-63
2023/05/25 04:50:36;;;;;;;18.13;9.20;;;9.90;99.90;;;;;;4956694;28;20224;-62
2023/05/25 04:53:04;;;;;;;19.30;9.40;;;10.00;99.90;;;;;;4956566;28;20250;-63
2023/05/25 04:55:32;;;;;;;18.87;8.97;;;10.00;99.90;;;;;;4956314;28;20231;-63
2023/05/25 04:58:04;;;;;;;19.47;9.40;;;10.10;99.90;;;;;;4956054;28;20636;-63
2023/05/25 05:00:35;;;;;;;22.50;8.77;;;10.10;99.90;;;;;;4956221;28;20232;-62
2023/05/25 05:03:23;;;;;;;19.53;9.30;;;10.20;99.90;;;;;;4956860;28;20211;-63
2023/05/25 05:05:52;;;;;;;20.40;9.30;;;10.30;99.90;;;;;;4945375;29;20231;-63
2023/05/25 05:08:20;;;;;;;27.00;10.20;;;10.30;99.90;;;;;;4953453;28;20223;-63
2023/05/25 05:10:48;;;;;;;23.03;9.77;;;10.40;99.90;;;;;;4953309;28;20235;-63
2023/05/25 05:13:18;;;;;;;25.40;9.63;;;10.50;99.90;;;;;;4955636;28;20227;-62
2023/05/25 05:15:46;;;;;;;22.57;9.53;;;10.60;99.90;;;;;;4956187;28;20235;-63
2023/05/25 05:18:15;;;;;;;16.87;9.13;;;10.70;99.90;;;;;;4956668;28;20184;-63
2023/05/25 05:20:43;;;;;;;18.37;9.37;;;10.80;99.90;;;;;;4951001;28;20242;-62
2023/05/25 05:23:12;;;;;;;18.03;9.40;;;10.90;99.90;;;;;;4952049;28;20721;-63
2023/05/25 05:25:40;;;;;;;19.43;9.70;;;11.00;99.90;;;;;;4955841;28;20303;-63
2023/05/25 05:28:08;;;;;;;13.47;8.47;;;11.10;99.90;;;;;;4954399;28;20702;-63
2023/05/25 05:30:38;;;;;;;20.27;9.90;;;11.20;99.90;;;;;;4955076;28;20200;-63
2023/05/25 05:33:06;;;;;;;19.40;9.47;;;11.30;99.90;;;;;;4956289;28;20654;-63
2023/05/25 05:35:35;;;;;;;20.73;9.10;;;11.50;99.90;;;;;;4959104;28;20224;-63
2023/05/25 05:38:03;;;;;;;15.60;8.30;;;11.60;99.90;;;;;;4956420;28;20219;-63
2023/05/25 05:40:32;;;;;;;15.33;8.10;;;11.70;99.90;;;;;;4963825;28;20616;-63
2023/05/25 05:43:38;;;;;;;16.33;8.60;;;11.70;99.90;;;;;;4955258;28;20699;-63
2023/05/25 05:46:09;;;;;;;22.83;9.00;;;11.80;99.90;;;;;;4946211;28;20228;-63
2023/05/25 05:48:37;;;;;;;19.03;8.53;;;11.90;99.90;;;;;;4955267;28;20195;-63
2023/05/25 05:51:06;;;;;;;17.07;8.17;;;12.10;99.90;;;;;;4955991;28;20259;-63
2023/05/25 05:53:35;;;;;;;13.63;7.77;;;12.10;99.90;;;;;;4946084;28;20224;-63
2023/05/25 05:56:03;;;;;;;13.23;8.00;;;12.30;99.90;;;;;;4951152;28;20714;-63
2023/05/25 05:58:32;;;;;;;15.50;7.50;;;12.40;99.90;;;;;;4944834;28;20238;-63
2023/05/25 06:01:02;;;;;;;18.43;7.67;;;12.40;99.90;;;;;;4954768;28;20240;-63
2023/05/25 06:03:32;;;;;;;15.10;8.13;;;12.60;99.90;;;;;;4954397;28;20243;-62
2023/05/25 06:06:21;;;;;;;18.80;7.90;;;12.60;99.90;;;;;;4955587;28;20199;-63
2023/05/25 06:08:50;;;;;;;15.27;7.47;;;12.70;99.90;;;;;;4956083;28;20223;-63
2023/05/25 06:11:18;;;;;;;17.50;7.10;;;12.80;99.90;;;;;;4954508;28;20220;-63
2023/05/25 06:14:05;;;;;;;13.27;7.13;;;12.90;99.90;;;;;;4953028;28;20235;-63
2023/05/25 06:16:33;;;;;;;17.70;6.73;;;13.00;99.90;;;;;;4949277;28;20299;-63
2023/05/25 06:19:03;;;;;;;19.30;6.60;;;13.10;99.90;;;;;;4954418;28;20351;-63
2023/05/25 06:21:31;;;;;;;14.53;6.73;;;13.20;99.90;;;;;;4954461;28;20283;-63
2023/05/25 06:24:00;;;;;;;15.63;6.70;;;13.40;99.90;;;;;;4955696;28;20200;-63
2023/05/25 06:26:28;;;;;;;12.77;5.50;;;13.50;99.90;;;;;;4954566;28;20231;-63
2023/05/25 06:28:57;;;;;;;11.50;6.13;;;13.70;99.90;;;;;;4954833;28;20603;-63
2023/05/25 06:31:25;;;;;;;14.33;5.90;;;13.80;99.90;;;;;;4954945;28;20232;-61
2023/05/25 06:33:54;;;;;;;14.20;6.03;;;13.90;99.90;;;;;;4954924;28;20633;-61
2023/05/25 06:36:23;;;;;;;10.80;5.57;;;14.10;99.90;;;;;;4953103;28;20238;-61
2023/05/25 06:38:52;;;;;;;20.07;6.03;;;14.20;99.90;;;;;;4953747;29;20227;-61
2023/05/25 06:41:20;;;;;;;16.77;5.37;;;14.30;99.90;;;;;;4952861;28;20231;-61
2023/05/25 06:43:48;;;;;;;18.23;5.27;;;14.40;99.90;;;;;;4954703;28;20330;-61
2023/05/25 06:46:17;;;;;;;11.20;5.53;;;14.50;99.90;;;;;;4955453;28;20219;-61
2023/05/25 06:48:46;;;;;;;14.27;5.57;;;14.50;99.90;;;;;;4954529;28;20216;-61
2023/05/25 06:51:14;;;;;;;13.20;5.87;;;14.60;99.90;;;;;;4954921;28;20196;-61
2023/05/25 06:53:44;;;;;;;10.07;4.93;;;14.80;99.90;;;;;;4940137;29;20243;-61
2023/05/25 06:56:12;;;;;;;15.70;5.20;;;14.90;99.90;;;;;;4937857;28;20235;-62
2023/05/25 06:58:41;;;;;;;10.23;5.20;;;15.00;99.90;;;;;;4933372;29;20573;-61
2023/05/25 07:01:09;;;;;;;11.23;4.93;;;15.00;99.90;;;;;;4953547;28;20718;-61
2023/05/25 07:03:38;;;;;;;9.63;5.20;;;15.20;99.90;;;;;;4952918;28;20667;-61
2023/05/25 07:06:07;;;;;;;7.57;4.43;;;15.30;99.90;;;;;;4954446;28;20197;-61
2023/05/25 07:08:35;;;;;;;12.10;4.70;;;15.40;99.90;;;;;;4953704;28;20224;-62
2023/05/25 07:11:07;;;;;;;11.33;4.87;;;15.50;99.90;;;;;;4953851;28;20227;-61
2023/05/25 07:13:36;;;;;;;7.23;4.37;;;15.50;99.90;;;;;;4947899;28;20222;-61
2023/05/25 07:16:04;;;;;;;14.30;5.03;;;15.50;99.90;;;;;;4954176;28;20239;-62
2023/05/25 07:18:33;;;;;;;11.47;5.00;;;15.60;99.90;;;;;;4952407;28;20196;-61
2023/05/25 07:21:02;;;;;;;9.37;4.80;;;15.70;99.90;;;;;;4950721;28;20222;-61
2023/05/25 07:23:30;;;;;;;11.27;4.53;;;15.90;99.90;;;;;;4955571;28;20234;-62
2023/05/25 07:25:58;;;;;;;14.70;4.40;;;16.10;99.90;;;;;;4950157;28;20232;-61
2023/05/25 07:28:28;;;;;;;14.13;4.53;;;16.20;99.90;;;;;;4956127;28;20220;-61
2023/05/25 07:30:56;;;;;;;8.47;4.17;;;16.30;99.90;;;;;;4957735;28;20233;-62
2023/05/25 07:33:25;;;;;;;6.87;3.77;;;16.30;99.90;;;;;;4955253;28;20199;-61
2023/05/25 07:35:53;;;;;;;10.50;4.17;;;16.50;99.90;;;;;;4957327;29;20566;-61
2023/05/25 07:38:21;;;;;;;10.27;4.50;;;16.60;99.90;;;;;;4954282;28;20613;-62
2023/05/25 07:40:51;;;;;;;9.13;3.87;;;16.80;99.90;;;;;;4957297;28;20220;-62
2023/05/25 07:43:19;;;;;;;6.30;3.70;;;17.00;99.90;;;;;;4957574;28;20219;-61
2023/05/25 07:45:49;;;;;;;9.50;4.23;;;17.10;99.90;;;;;;4957582;28;20943;-62
2023/05/25 07:48:18;;;;;;;6.33;3.47;;;17.30;99.90;;;;;;4957885;28;20246;-61
2023/05/25 07:50:46;;;;;;;6.67;3.90;;;17.50;99.90;;;;;;4957872;28;20220;-62
2023/05/25 07:53:14;;;;;;;7.47;3.83;;;17.50;99.90;;;;;;4957241;28;20670;-62
2023/05/25 07:55:42;;;;;;;9.37;3.77;;;17.50;99.90;;;;;;4956797;28;20236;-61
2023/05/25 07:58:11;;;;;;;7.70;3.73;;;17.60;99.90;;;;;;4956954;28;20572;-61
2023/05/25 08:00:40;;;;;;;5.70;3.20;;;17.50;99.90;;;;;;4961828;28;20215;-61
2023/05/25 08:03:09;;;;;;;6.27;3.67;;;17.60;99.90;;;;;;4962137;28;20219;-59
2023/05/25 08:05:38;;;;;;;9.53;3.50;;;17.60;99.90;;;;;;4954081;28;20589;-60
2023/05/25 08:08:07;;;;;;;7.13;3.20;;;17.70;99.90;;;;;;4955787;28;20268;-60
2023/05/25 08:10:35;;;;;;;5.30;3.23;;;17.80;99.90;;;;;;4953126;28;20212;-60
2023/05/25 08:13:03;;;;;;;5.87;3.57;;;18.00;99.90;;;;;;4953498;28;20228;-60
2023/05/25 08:15:31;;;;;;;4.77;3.60;;;18.10;99.90;;;;;;4959608;28;20535;-60
2023/05/25 08:18:00;;;;;;;4.77;3.20;;;18.10;99.90;;;;;;4956440;28;20200;-60
2023/05/25 08:20:30;;;;;;;7.50;3.23;;;18.40;99.90;;;;;;4959222;28;20659;-60
2023/05/25 08:22:58;;;;;;;7.20;3.30;;;18.50;99.90;;;;;;4958725;28;20220;-60
2023/05/25 08:25:27;;;;;;;10.20;3.63;;;18.80;99.90;;;;;;4955786;28;20220;-60
2023/05/25 08:27:55;;;;;;;7.80;3.20;;;19.00;99.90;;;;;;4962329;28;20227;-61
2023/05/25 08:30:24;;;;;;;5.87;3.63;;;19.00;99.90;;;;;;4959265;28;20565;-60
2023/05/25 08:32:52;;;;;;;6.10;3.40;;;19.30;99.90;;;;;;4956800;28;20296;-60
2023/05/25 08:35:21;;;;;;;6.20;3.30;;;19.60;99.90;;;;;;4953453;28;20301;-61
2023/05/25 08:37:50;;;;;;;7.73;3.97;;;19.90;99.90;;;;;;4955203;28;20231;-61
2023/05/25 08:40:22;;;;;;;7.70;3.67;;;20.00;99.90;;;;;;4945183;28;20555;-60
2023/05/25 08:42:51;;;;;;;6.70;3.33;;;19.90;99.90;;;;;;4955810;28;20629;-61
2023/05/25 08:45:19;;;;;;;6.13;3.43;;;19.80;99.90;;;;;;4956556;28;20583;-61
2023/05/25 08:48:10;;;;;;;4.40;3.30;;;20.10;99.90;;;;;;4942015;29;20279;-61
2023/05/25 08:50:41;;;;;;;5.73;3.23;;;20.40;99.90;;;;;;4953878;28;20316;-61
2023/05/25 08:53:12;;;;;;;5.37;3.33;;;20.40;99.90;;;;;;4944881;29;20618;-61
2023/05/25 08:55:43;;;;;;;9.83;3.53;;;20.60;99.90;;;;;;4951939;28;20741;-60
2023/05/25 08:58:19;;;;;;;7.07;3.83;;;20.40;99.90;;;;;;4946414;28;20220;-61
2023/05/25 09:00:54;;;;;;;3.50;3.20;;;20.70;99.90;;;;;;4958610;28;20235;-60
2023/05/25 09:03:24;;;;;;;8.83;3.30;;;21.00;99.90;;;;;;4954520;29;20203;-60
2023/05/25 09:05:53;;;;;;;6.67;2.93;;;20.70;99.90;;;;;;4928070;29;20217;-61
2023/05/25 09:08:23;;;;;;;5.73;3.63;;;20.60;99.90;;;;;;4951279;28;20224;-61
2023/05/25 09:10:52;;;;;;;6.30;3.60;;;20.70;99.90;;;;;;4946218;28;20223;-60
2023/05/25 09:13:21;;;;;;;7.63;3.37;;;21.00;99.90;;;;;;4954058;28;20228;-61
2023/05/25 09:15:50;;;;;;;9.10;3.83;;;21.40;99.90;;;;;;4955379;28;20219;-60
2023/05/25 09:18:19;;;;;;;5.60;3.70;;;21.70;99.90;;;;;;4955118;28;20640;-60
2023/05/25 09:20:48;;;;;;;7.38;3.85;;;22.10;99.90;;;;;;4949332;28;20227;-61
2023/05/25 09:23:17;;;;;;;6.75;3.65;;;22.50;99.90;;;;;;4952445;28;20316;-61
2023/05/25 09:25:49;;;;;;;6.85;3.10;;;22.90;99.90;;;;;;4954052;28;20260;-61
2023/05/25 09:28:20;;;;;;;4.55;3.20;;;23.20;99.90;;;;;;4961130;28;20310;-60
2023/05/25 09:30:52;;;;;;;5.15;3.20;;;23.20;99.90;;;;;;4952599;28;20236;-60
2023/05/25 09:33:20;;;;;;;3.75;3.10;;;22.90;99.90;;;;;;4953965;28;20231;-61
2023/05/25 09:35:50;;;;;;;3.78;3.30;;;22.60;99.90;;;;;;4954801;28;20256;-60
2023/05/25 09:38:19;;;;;;;5.53;3.65;;;22.50;99.90;;;;;;4952888;28;20306;-60
2023/05/25 09:40:49;;;;;;;6.93;3.92;;;22.90;99.90;;;;;;4952207;28;20225;-61
2023/05/25 09:43:17;;;;;;;7.07;3.53;;;23.10;99.90;;;;;;4951881;28;20256;-61
2023/05/25 09:46:06;;;;;;;7.20;3.80;;;23.20;99.90;;;;;;4952219;28;20257;-60
2023/05/25 09:48:35;;;;;;;6.53;3.42;;;23.50;99.90;;;;;;4952398;28;20712;-61
2023/05/25 09:51:03;;;;;;;4.07;3.40;;;23.90;99.90;;;;;;4944496;29;20208;-61
2023/05/25 09:53:32;;;;;;;6.78;4.05;;;23.90;99.90;;;;;;4960600;28;20222;-61
2023/05/25 09:56:02;;;;;;;5.90;3.42;;;24.00;99.90;;;;;;4953572;28;20695;-60
2023/05/25 09:58:31;;;;;;;4.45;3.60;;;24.20;99.90;;;;;;4954829;28;20252;-60
2023/05/25 10:01:00;;;;;;;8.95;3.63;;;23.60;99.90;;;;;;4954218;28;20307;-60
2023/05/25 10:03:29;;;;;;;5.35;3.30;;;22.80;99.90;;;;;;4954034;28;20594;-60
2023/05/25 10:05:57;;;;;;;8.32;3.97;;;23.10;99.90;;;;;;4955491;28;20197;-60
2023/05/25 10:08:27;;;;;;;4.85;3.55;;;23.50;99.90;;;;;;4952021;28;20216;-61
2023/05/25 10:10:56;;;;;;;5.35;3.35;;;23.70;99.90;;;;;;4952512;28;20275;-60
2023/05/25 10:13:28;;;;;;;4.05;3.10;;;24.00;99.90;;;;;;4954739;28;20712;-60
2023/05/25 10:15:58;;;;;;;5.22;3.53;;;24.40;99.90;;;;;;4944345;28;20226;-60
2023/05/25 10:18:31;;;;;;;3.80;3.50;;;23.90;99.90;;;;;;4952857;28;20205;-60
2023/05/25 10:21:02;;;;;;;5.70;3.80;;;24.40;99.90;;;;;;4948708;29;20208;-60
2023/05/25 10:23:40;;;;;;;3.13;2.90;;;24.90;99.90;;;;;;4960527;28;20228;-60
2023/05/25 10:26:09;;;;;;;3.85;3.45;;;25.00;99.90;;;;;;4960237;28;20230;-60
2023/05/25 10:28:42;;;;;;;4.65;3.58;;;24.80;99.90;;;;;;4954196;28;20230;-60
2023/05/25 10:31:12;;;;;;;7.68;3.50;;;24.20;99.90;;;;;;4952873;28;20678;-60
2023/05/25 10:33:40;;;;;;;4.95;3.67;;;23.60;99.90;;;;;;4947080;28;20197;-59
2023/05/25 10:36:09;;;;;;;3.88;3.50;;;23.80;99.90;;;;;;4950654;28;20232;-60
2023/05/25 10:38:40;;;;;;;5.77;3.50;;;23.80;99.90;;;;;;4958356;28;20216;-60
2023/05/25 10:41:09;;;;;;;5.97;3.40;;;23.00;99.90;;;;;;4963214;28;20659;-60
2023/05/25 10:43:40;;;;;;;5.17;3.53;;;22.90;99.90;;;;;;4955254;28;20259;-60
2023/05/25 10:46:10;;;;;;;6.40;3.93;;;23.30;99.90;;;;;;4948016;28;20634;-60
2023/05/25 10:48:39;;;;;;;4.30;3.77;;;23.00;99.90;;;;;;4953196;28;20283;-60
2023/05/25 10:51:08;;;;;;;5.13;3.70;;;22.40;99.90;;;;;;4952772;28;20205;-60
2023/05/25 10:53:39;;;;;;;7.43;3.40;;;22.70;99.90;;;;;;4950091;28;20235;-60
2023/05/25 10:56:11;;;;;;;9.40;3.90;;;23.00;99.90;;;;;;4951108;28;20231;-59
2023/05/25 10:58:43;;;;;;;5.53;3.50;;;22.80;99.90;;;;;;4949953;28;20220;-60
2023/05/25 11:01:14;;;;;;;5.10;3.70;;;22.40;99.90;;;;;;4952432;28;20241;-59
2023/05/25 11:04:14;;;;;;;6.50;4.07;;;21.70;99.90;;;;;;4955966;28;20228;-59
2023/05/25 11:07:15;;;;;;;8.03;4.30;;;21.50;99.90;;;;;;4956766;28;20201;-59
2023/05/25 11:09:55;;;;;;;6.50;3.87;;;21.20;99.90;;;;;;4944007;28;20208;-60
2023/05/25 11:12:23;;;;;;;4.67;4.00;;;20.70;99.90;;;;;;4957318;28;20198;-58
2023/05/25 11:15:20;;;;;;;7.87;3.63;;;20.60;99.90;;;;;;4956628;28;20220;-60
2023/05/25 11:17:59;;;;;;;8.63;3.83;;;20.70;99.90;;;;;;4933495;28;20223;-59
2023/05/25 11:20:30;;;;;;;6.80;4.30;;;20.80;99.90;;;;;;4955676;28;20239;-59
2023/05/25 11:22:59;;;;;;;4.73;3.90;;;20.70;99.90;;;;;;4953829;28;20231;-59
2023/05/25 11:25:39;;;;;;;3.47;3.17;;;20.40;99.90;;;;;;4951219;28;20687;-59
2023/05/25 11:28:10;;;;;;;4.10;3.13;;;20.10;99.90;;;;;;4959150;28;20325;-59
2023/05/25 11:30:42;;;;;;;8.53;3.67;;;20.50;99.90;;;;;;4958343;28;20196;-59
2023/05/25 11:33:10;;;;;;;7.57;4.13;;;21.00;99.90;;;;;;4955532;28;20196;-59
2023/05/25 11:35:40;;;;;;;6.17;3.77;;;21.00;99.90;;;;;;4953824;28;20227;-60
2023/05/25 11:38:08;;;;;;;8.33;3.90;;;21.00;99.90;;;;;;4958791;28;20274;-59
2023/05/25 11:40:37;;;;;;;5.27;3.60;;;21.00;99.90;;;;;;4957305;28;20228;-59
2023/05/25 11:43:09;;;;;;;9.87;3.50;;;21.30;99.90;;;;;;4956243;28;20228;-60
2023/05/25 11:45:38;;;;;;;4.77;3.50;;;21.90;99.90;;;;;;4944812;28;20707;-59
2023/05/25 11:48:13;;;;;;;9.47;3.50;;;22.00;99.90;;;;;;4957776;28;20209;-59
2023/05/25 11:50:42;;;;;;;6.40;3.83;;;22.20;99.90;;;;;;4961635;28;20227;-59
2023/05/25 11:53:11;;;;;;;5.80;3.83;;;21.70;99.90;;;;;;4963648;28;20542;-59
2023/05/25 11:55:41;;;;;;;7.40;3.33;;;21.30;99.90;;;;;;4955449;28;20239;-60
2023/05/25 11:58:33;;;;;;;7.50;3.60;;;21.20;99.90;;;;;;4953598;28;20235;-60
2023/05/25 12:01:17;;;;;;;7.03;4.27;;;21.70;99.90;;;;;;4956370;28;20303;-59
2023/05/25 12:03:48;;;;;;;6.90;3.97;;;21.70;99.90;;;;;;4951058;28;20232;-60
2023/05/25 12:06:30;;;;;;;4.33;3.57;;;22.10;99.90;;;;;;4956928;28;20206;-58
2023/05/25 12:09:00;;;;;;;4.83;3.80;;;21.60;99.90;;;;;;4941531;29;20242;-59
2023/05/25 12:11:29;;;;;;;8.97;3.80;;;20.90;99.90;;;;;;4953020;28;20216;-59
2023/05/25 12:13:58;;;;;;;8.97;4.20;;;20.90;99.90;;;;;;4954755;28;20223;-60
2023/05/25 12:16:26;;;;;;;10.70;3.77;;;21.40;99.90;;;;;;4955850;28;20704;-59
2023/05/25 12:18:58;;;;;;;6.57;4.27;;;21.40;99.90;;;;;;4952610;28;20716;-59
2023/05/25 12:21:26;;;;;;;6.93;3.80;;;21.60;99.90;;;;;;4954343;28;20200;-59
2023/05/25 12:23:55;;;;;;;7.63;3.70;;;21.40;99.90;;;;;;4962213;28;20219;-59
2023/05/25 12:26:23;;;;;;;8.77;4.20;;;21.40;99.90;;;;;;4955605;28;20228;-59
2023/05/25 12:28:59;;;;;;;5.57;3.83;;;21.40;99.90;;;;;;4956099;28;20749;-59
2023/05/25 12:31:29;;;;;;;6.90;4.03;;;20.80;99.90;;;;;;4953228;28;20223;-59
2023/05/25 12:34:07;;;;;;;4.90;3.70;;;20.80;99.90;;;;;;4952489;28;20224;-59
2023/05/25 12:36:55;;;;;;;5.13;3.43;;;21.10;99.90;;;;;;4953173;28;20232;-59
2023/05/25 12:39:37;;;;;;;8.73;4.17;;;21.10;99.90;;;;;;4967930;28;20188;-60
2023/05/25 12:42:14;;;;;;;4.83;3.90;;;21.30;99.90;;;;;;4952481;28;20682;-59
2023/05/25 12:44:43;;;;;;;10.97;4.33;;;21.30;99.90;;;;;;4953395;28;20266;-59
2023/05/25 12:47:14;;;;;;;5.33;3.70;;;21.20;99.90;;;;;;4960321;28;20665;-59
2023/05/25 12:49:45;;;;;;;5.57;3.77;;;21.00;99.90;;;;;;4955602;28;20254;-59
2023/05/25 12:52:34;;;;;;;4.33;3.50;;;21.00;99.90;;;;;;4948241;28;20246;-58
2023/05/25 12:55:25;;;;;;;9.73;4.50;;;21.00;99.90;;;;;;4954198;28;20236;-59
2023/05/25 12:57:54;;;;;;;7.03;4.13;;;20.90;99.90;;;;;;4955433;28;20224;-59
2023/05/25 13:00:25;;;;;;;6.63;3.80;;;21.30;99.90;;;;;;4956349;28;20214;-59